sensor_id;sensor_type;location;lat;lon;timestamp;P1;durP1;ratioP1;P2;durP2;ratioP2
48847;SDS011;36611;51.638;5.784;2023-06-10T00:02:13;4.30;;;3.80;;
48847;SDS011;36611;51.638;5.784;2023-06-10T00:04:40;4.05;;;3.63;;
48847;SDS011;36611;51.638;5.784;2023-06-10T00:07:07;5.28;;;4.10;;
48847;SDS011;36611;51.638;5.784;2023-06-10T00:09:35;5.40;;;4.15;;
48847;SDS011;36611;51.638;5.784;2023-06-10T00:12:06;4.75;;;3.38;;
48847;SDS011;36611;51.638;5.784;2023-06-10T00:14:35;4.60;;;3.97;;
48847;SDS011;36611;51.638;5.784;2023-06-10T00:17:03;4.10;;;3.70;;
48847;SDS011;36611;51.638;5.784;2023-06-10T00:19:30;4.82;;;3.92;;
48847;SDS011;36611;51.638;5.784;2023-06-10T00:21:57;4.75;;;3.95;;
48847;SDS011;36611;51.638;5.784;2023-06-10T00:24:24;3.88;;;3.30;;
48847;SDS011;36611;51.638;5.784;2023-06-10T00:26:51;4.30;;;3.90;;
48847;SDS011;36611;51.638;5.784;2023-06-10T00:29:17;4.13;;;3.72;;
48847;SDS011;36611;51.638;5.784;2023-06-10T00:31:46;4.10;;;3.70;;
48847;SDS011;36611;51.638;5.784;2023-06-10T00:34:13;4.57;;;3.80;;
48847;SDS011;36611;51.638;5.784;2023-06-10T00:36:39;4.53;;;3.88;;
48847;SDS011;36611;51.638;5.784;2023-06-10T00:39:06;4.32;;;3.75;;
48847;SDS011;36611;51.638;5.784;2023-06-10T00:41:35;3.90;;;3.50;;
48847;SDS011;36611;51.638;5.784;2023-06-10T00:44:02;4.30;;;3.50;;
48847;SDS011;36611;51.638;5.784;2023-06-10T00:46:29;3.50;;;3.00;;
48847;SDS011;36611;51.638;5.784;2023-06-10T00:48:58;4.22;;;3.65;;
48847;SDS011;36611;51.638;5.784;2023-06-10T00:51:25;4.15;;;3.67;;
48847;SDS011;36611;51.638;5.784;2023-06-10T00:53:51;4.20;;;3.22;;
48847;SDS011;36611;51.638;5.784;2023-06-10T00:56:19;3.90;;;3.53;;
48847;SDS011;36611;51.638;5.784;2023-06-10T00:58:47;5.07;;;4.10;;
48847;SDS011;36611;51.638;5.784;2023-06-10T01:01:14;3.78;;;3.25;;
48847;SDS011;36611;51.638;5.784;2023-06-10T01:03:41;3.95;;;3.65;;
48847;SDS011;36611;51.638;5.784;2023-06-10T01:06:17;4.25;;;3.50;;
48847;SDS011;36611;51.638;5.784;2023-06-10T01:08:46;4.25;;;3.55;;
48847;SDS011;36611;51.638;5.784;2023-06-10T01:11:34;3.88;;;3.53;;
48847;SDS011;36611;51.638;5.784;2023-06-10T01:14:07;3.65;;;3.25;;
48847;SDS011;36611;51.638;5.784;2023-06-10T01:16:35;4.75;;;3.83;;
48847;SDS011;36611;51.638;5.784;2023-06-10T01:19:03;4.35;;;3.28;;
48847;SDS011;36611;51.638;5.784;2023-06-10T01:21:30;4.32;;;3.63;;
48847;SDS011;36611;51.638;5.784;2023-06-10T01:24:00;4.38;;;3.72;;
48847;SDS011;36611;51.638;5.784;2023-06-10T01:26:30;4.68;;;3.60;;
48847;SDS011;36611;51.638;5.784;2023-06-10T01:29:03;3.90;;;3.47;;
48847;SDS011;36611;51.638;5.784;2023-06-10T01:34:08;3.60;;;3.30;;
48847;SDS011;36611;51.638;5.784;2023-06-10T01:36:37;3.63;;;3.15;;
48847;SDS011;36611;51.638;5.784;2023-06-10T01:39:07;3.70;;;3.40;;
48847;SDS011;36611;51.638;5.784;2023-06-10T01:41:35;3.38;;;3.05;;
48847;SDS011;36611;51.638;5.784;2023-06-10T01:44:03;3.90;;;3.50;;
48847;SDS011;36611;51.638;5.784;2023-06-10T01:46:31;3.80;;;3.20;;
48847;SDS011;36611;51.638;5.784;2023-06-10T01:48:57;4.22;;;3.40;;
48847;SDS011;36611;51.638;5.784;2023-06-10T01:51:24;3.60;;;3.30;;
48847;SDS011;36611;51.638;5.784;2023-06-10T01:53:51;3.90;;;3.50;;
48847;SDS011;36611;51.638;5.784;2023-06-10T01:56:19;3.80;;;3.40;;
48847;SDS011;36611;51.638;5.784;2023-06-10T01:58:46;3.65;;;3.35;;
48847;SDS011;36611;51.638;5.784;2023-06-10T02:01:13;3.70;;;3.08;;
48847;SDS011;36611;51.638;5.784;2023-06-10T02:03:40;4.20;;;3.80;;
48847;SDS011;36611;51.638;5.784;2023-06-10T02:06:08;3.28;;;2.97;;
48847;SDS011;36611;51.638;5.784;2023-06-10T02:08:34;3.45;;;2.97;;
48847;SDS011;36611;51.638;5.784;2023-06-10T02:11:01;4.20;;;3.50;;
48847;SDS011;36611;51.638;5.784;2023-06-10T02:13:28;3.38;;;3.05;;
48847;SDS011;36611;51.638;5.784;2023-06-10T02:15:55;3.38;;;3.08;;
48847;SDS011;36611;51.638;5.784;2023-06-10T02:18:22;3.35;;;3.05;;
48847;SDS011;36611;51.638;5.784;2023-06-10T02:20:48;3.45;;;3.05;;
48847;SDS011;36611;51.638;5.784;2023-06-10T02:23:15;3.47;;;3.17;;
48847;SDS011;36611;51.638;5.784;2023-06-10T02:25:42;3.65;;;3.30;;
48847;SDS011;36611;51.638;5.784;2023-06-10T02:28:08;4.43;;;3.40;;
48847;SDS011;36611;51.638;5.784;2023-06-10T02:30:35;3.80;;;3.47;;
48847;SDS011;36611;51.638;5.784;2023-06-10T02:33:04;3.33;;;3.05;;
48847;SDS011;36611;51.638;5.784;2023-06-10T02:35:31;3.72;;;3.03;;
48847;SDS011;36611;51.638;5.784;2023-06-10T02:37:58;3.13;;;2.83;;
48847;SDS011;36611;51.638;5.784;2023-06-10T02:40:25;3.30;;;3.00;;
48847;SDS011;36611;51.638;5.784;2023-06-10T02:42:52;3.13;;;2.83;;
48847;SDS011;36611;51.638;5.784;2023-06-10T02:45:18;3.40;;;3.10;;
48847;SDS011;36611;51.638;5.784;2023-06-10T02:47:45;3.70;;;3.35;;
48847;SDS011;36611;51.638;5.784;2023-06-10T02:50:12;3.72;;;3.33;;
48847;SDS011;36611;51.638;5.784;2023-06-10T02:52:52;3.78;;;3.10;;
48847;SDS011;36611;51.638;5.784;2023-06-10T02:55:21;2.95;;;2.75;;
48847;SDS011;36611;51.638;5.784;2023-06-10T02:57:53;3.20;;;2.92;;
48847;SDS011;36611;51.638;5.784;2023-06-10T03:00:20;3.90;;;3.33;;
48847;SDS011;36611;51.638;5.784;2023-06-10T03:02:48;3.22;;;2.92;;
48847;SDS011;36611;51.638;5.784;2023-06-10T03:05:17;3.50;;;3.20;;
48847;SDS011;36611;51.638;5.784;2023-06-10T03:07:47;3.40;;;3.10;;
48847;SDS011;36611;51.638;5.784;2023-06-10T03:10:15;3.30;;;3.00;;
48847;SDS011;36611;51.638;5.784;2023-06-10T03:12:42;3.50;;;2.90;;
48847;SDS011;36611;51.638;5.784;2023-06-10T03:15:10;3.30;;;3.00;;
48847;SDS011;36611;51.638;5.784;2023-06-10T03:17:37;3.25;;;2.95;;
48847;SDS011;36611;51.638;5.784;2023-06-10T03:20:04;3.50;;;3.20;;
48847;SDS011;36611;51.638;5.784;2023-06-10T03:22:38;3.60;;;3.30;;
48847;SDS011;36611;51.638;5.784;2023-06-10T03:25:08;2.97;;;2.67;;
48847;SDS011;36611;51.638;5.784;2023-06-10T03:27:43;3.20;;;2.80;;
48847;SDS011;36611;51.638;5.784;2023-06-10T03:30:11;4.13;;;3.13;;
48847;SDS011;36611;51.638;5.784;2023-06-10T03:32:40;3.20;;;2.90;;
48847;SDS011;36611;51.638;5.784;2023-06-10T03:35:09;3.50;;;3.20;;
48847;SDS011;36611;51.638;5.784;2023-06-10T03:37:36;3.17;;;2.78;;
48847;SDS011;36611;51.638;5.784;2023-06-10T03:40:03;3.50;;;3.20;;
48847;SDS011;36611;51.638;5.784;2023-06-10T03:42:32;3.00;;;2.80;;
48847;SDS011;36611;51.638;5.784;2023-06-10T03:44:59;3.22;;;2.90;;
48847;SDS011;36611;51.638;5.784;2023-06-10T03:47:33;3.50;;;3.15;;
48847;SDS011;36611;51.638;5.784;2023-06-10T03:50:03;2.83;;;2.50;;
48847;SDS011;36611;51.638;5.784;2023-06-10T03:52:31;3.22;;;2.97;;
48847;SDS011;36611;51.638;5.784;2023-06-10T03:54:58;3.63;;;3.10;;
48847;SDS011;36611;51.638;5.784;2023-06-10T03:57:25;3.28;;;2.97;;
48847;SDS011;36611;51.638;5.784;2023-06-10T03:59:51;4.15;;;3.17;;
48847;SDS011;36611;51.638;5.784;2023-06-10T04:02:19;3.90;;;2.80;;
48847;SDS011;36611;51.638;5.784;2023-06-10T04:04:45;3.17;;;2.80;;
48847;SDS011;36611;51.638;5.784;2023-06-10T04:07:13;3.72;;;3.42;;
48847;SDS011;36611;51.638;5.784;2023-06-10T04:09:40;3.00;;;2.70;;
48847;SDS011;36611;51.638;5.784;2023-06-10T04:12:07;3.30;;;3.00;;
48847;SDS011;36611;51.638;5.784;2023-06-10T04:14:35;3.30;;;3.00;;
48847;SDS011;36611;51.638;5.784;2023-06-10T04:17:05;3.17;;;2.88;;
48847;SDS011;36611;51.638;5.784;2023-06-10T04:19:36;3.15;;;2.85;;
48847;SDS011;36611;51.638;5.784;2023-06-10T04:22:03;3.40;;;3.10;;
48847;SDS011;36611;51.638;5.784;2023-06-10T04:24:31;3.10;;;2.80;;
48847;SDS011;36611;51.638;5.784;2023-06-10T04:26:59;3.22;;;2.92;;
48847;SDS011;36611;51.638;5.784;2023-06-10T04:29:26;3.40;;;3.10;;
48847;SDS011;36611;51.638;5.784;2023-06-10T04:31:53;2.97;;;2.67;;
48847;SDS011;36611;51.638;5.784;2023-06-10T04:34:20;2.85;;;2.55;;
48847;SDS011;36611;51.638;5.784;2023-06-10T04:36:47;3.28;;;2.97;;
48847;SDS011;36611;51.638;5.784;2023-06-10T04:39:14;3.40;;;2.90;;
48847;SDS011;36611;51.638;5.784;2023-06-10T04:41:43;2.83;;;2.60;;
48847;SDS011;36611;51.638;5.784;2023-06-10T04:44:09;3.13;;;2.83;;
48847;SDS011;36611;51.638;5.784;2023-06-10T04:46:37;3.15;;;2.90;;
48847;SDS011;36611;51.638;5.784;2023-06-10T04:49:04;3.10;;;2.80;;
48847;SDS011;36611;51.638;5.784;2023-06-10T04:51:31;3.30;;;2.72;;
48847;SDS011;36611;51.638;5.784;2023-06-10T04:53:58;2.97;;;2.67;;
48847;SDS011;36611;51.638;5.784;2023-06-10T04:56:29;3.42;;;2.90;;
48847;SDS011;36611;51.638;5.784;2023-06-10T04:58:56;2.72;;;2.53;;
48847;SDS011;36611;51.638;5.784;2023-06-10T05:01:23;2.72;;;2.53;;
48847;SDS011;36611;51.638;5.784;2023-06-10T05:03:50;3.40;;;3.10;;
48847;SDS011;36611;51.638;5.784;2023-06-10T05:06:17;2.88;;;2.65;;
48847;SDS011;36611;51.638;5.784;2023-06-10T05:08:43;3.17;;;2.88;;
48847;SDS011;36611;51.638;5.784;2023-06-10T05:11:10;2.58;;;2.38;;
48847;SDS011;36611;51.638;5.784;2023-06-10T05:13:37;3.10;;;2.80;;
48847;SDS011;36611;51.638;5.784;2023-06-10T05:16:03;2.83;;;2.60;;
48847;SDS011;36611;51.638;5.784;2023-06-10T05:18:30;2.65;;;2.45;;
48847;SDS011;36611;51.638;5.784;2023-06-10T05:20:57;3.22;;;2.92;;
48847;SDS011;36611;51.638;5.784;2023-06-10T05:23:24;3.42;;;2.80;;
48847;SDS011;36611;51.638;5.784;2023-06-10T05:25:50;2.70;;;2.50;;
48847;SDS011;36611;51.638;5.784;2023-06-10T05:28:17;2.92;;;2.63;;
48847;SDS011;36611;51.638;5.784;2023-06-10T05:30:44;3.10;;;2.60;;
48847;SDS011;36611;51.638;5.784;2023-06-10T05:33:11;3.00;;;2.80;;
48847;SDS011;36611;51.638;5.784;2023-06-10T05:35:37;3.00;;;2.80;;
48847;SDS011;36611;51.638;5.784;2023-06-10T05:38:04;3.05;;;2.75;;
48847;SDS011;36611;51.638;5.784;2023-06-10T05:40:31;2.78;;;2.58;;
48847;SDS011;36611;51.638;5.784;2023-06-10T05:42:57;3.83;;;3.00;;
48847;SDS011;36611;51.638;5.784;2023-06-10T05:45:24;3.15;;;2.85;;
48847;SDS011;36611;51.638;5.784;2023-06-10T05:47:50;2.75;;;2.55;;
48847;SDS011;36611;51.638;5.784;2023-06-10T05:50:17;3.00;;;2.80;;
48847;SDS011;36611;51.638;5.784;2023-06-10T05:52:44;2.92;;;2.72;;
48847;SDS011;36611;51.638;5.784;2023-06-10T05:55:11;3.25;;;2.95;;
48847;SDS011;36611;51.638;5.784;2023-06-10T05:57:37;2.97;;;2.70;;
48847;SDS011;36611;51.638;5.784;2023-06-10T06:00:04;3.03;;;2.60;;
48847;SDS011;36611;51.638;5.784;2023-06-10T06:02:37;3.25;;;2.95;;
48847;SDS011;36611;51.638;5.784;2023-06-10T06:05:04;3.05;;;2.75;;
48847;SDS011;36611;51.638;5.784;2023-06-10T06:07:32;3.05;;;2.75;;
48847;SDS011;36611;51.638;5.784;2023-06-10T06:09:59;2.67;;;2.47;;
48847;SDS011;36611;51.638;5.784;2023-06-10T06:12:25;3.17;;;2.38;;
48847;SDS011;36611;51.638;5.784;2023-06-10T06:14:52;2.92;;;2.50;;
48847;SDS011;36611;51.638;5.784;2023-06-10T06:17:18;2.67;;;2.40;;
48847;SDS011;36611;51.638;5.784;2023-06-10T06:19:45;2.67;;;2.47;;
48847;SDS011;36611;51.638;5.784;2023-06-10T06:22:14;2.53;;;2.33;;
48847;SDS011;36611;51.638;5.784;2023-06-10T06:24:40;2.47;;;2.28;;
48847;SDS011;36611;51.638;5.784;2023-06-10T06:27:07;2.97;;;2.75;;
48847;SDS011;36611;51.638;5.784;2023-06-10T06:29:33;2.80;;;2.60;;
48847;SDS011;36611;51.638;5.784;2023-06-10T06:32:00;3.03;;;2.50;;
48847;SDS011;36611;51.638;5.784;2023-06-10T06:34:27;3.15;;;2.85;;
48847;SDS011;36611;51.638;5.784;2023-06-10T06:36:53;2.42;;;2.22;;
48847;SDS011;36611;51.638;5.784;2023-06-10T06:39:21;2.70;;;2.42;;
48847;SDS011;36611;51.638;5.784;2023-06-10T06:41:47;2.80;;;2.50;;
48847;SDS011;36611;51.638;5.784;2023-06-10T06:44:14;2.83;;;2.40;;
48847;SDS011;36611;51.638;5.784;2023-06-10T06:46:43;3.92;;;2.65;;
48847;SDS011;36611;51.638;5.784;2023-06-10T06:53:15;3.22;;;2.47;;
48847;SDS011;36611;51.638;5.784;2023-06-10T06:55:42;2.90;;;2.70;;
48847;SDS011;36611;51.638;5.784;2023-06-10T06:58:08;2.45;;;2.25;;
48847;SDS011;36611;51.638;5.784;2023-06-10T07:00:35;2.85;;;2.65;;
48847;SDS011;36611;51.638;5.784;2023-06-10T07:03:01;2.67;;;2.47;;
48847;SDS011;36611;51.638;5.784;2023-06-10T07:05:29;2.67;;;2.47;;
48847;SDS011;36611;51.638;5.784;2023-06-10T07:07:57;2.95;;;2.60;;
48847;SDS011;36611;51.638;5.784;2023-06-10T07:10:24;2.78;;;2.58;;
48847;SDS011;36611;51.638;5.784;2023-06-10T07:12:52;2.70;;;2.50;;
48847;SDS011;36611;51.638;5.784;2023-06-10T07:15:18;3.45;;;2.47;;
48847;SDS011;36611;51.638;5.784;2023-06-10T07:17:45;3.28;;;2.70;;
48847;SDS011;36611;51.638;5.784;2023-06-10T07:20:12;2.80;;;2.60;;
48847;SDS011;36611;51.638;5.784;2023-06-10T07:22:39;2.65;;;2.45;;
48847;SDS011;36611;51.638;5.784;2023-06-10T07:25:06;3.08;;;2.20;;
48847;SDS011;36611;51.638;5.784;2023-06-10T07:27:33;2.60;;;2.38;;
48847;SDS011;36611;51.638;5.784;2023-06-10T07:30:03;2.70;;;2.50;;
48847;SDS011;36611;51.638;5.784;2023-06-10T07:32:32;2.50;;;2.30;;
48847;SDS011;36611;51.638;5.784;2023-06-10T07:34:58;2.63;;;2.42;;
48847;SDS011;36611;51.638;5.784;2023-06-10T07:37:25;2.78;;;2.58;;
48847;SDS011;36611;51.638;5.784;2023-06-10T07:39:52;2.60;;;2.38;;
48847;SDS011;36611;51.638;5.784;2023-06-10T07:42:18;2.80;;;2.50;;
48847;SDS011;36611;51.638;5.784;2023-06-10T07:44:45;2.70;;;2.50;;
48847;SDS011;36611;51.638;5.784;2023-06-10T07:47:11;2.40;;;2.20;;
48847;SDS011;36611;51.638;5.784;2023-06-10T07:49:38;2.78;;;2.58;;
48847;SDS011;36611;51.638;5.784;2023-06-10T07:52:05;2.85;;;2.55;;
48847;SDS011;36611;51.638;5.784;2023-06-10T07:54:32;2.70;;;2.50;;
48847;SDS011;36611;51.638;5.784;2023-06-10T07:56:59;2.70;;;2.50;;
48847;SDS011;36611;51.638;5.784;2023-06-10T07:59:25;2.47;;;2.25;;
48847;SDS011;36611;51.638;5.784;2023-06-10T08:01:53;2.45;;;2.25;;
48847;SDS011;36611;51.638;5.784;2023-06-10T08:04:19;2.50;;;2.30;;
48847;SDS011;36611;51.638;5.784;2023-06-10T08:06:46;3.03;;;2.70;;
48847;SDS011;36611;51.638;5.784;2023-06-10T08:09:13;2.40;;;2.20;;
48847;SDS011;36611;51.638;5.784;2023-06-10T08:11:40;2.60;;;2.40;;
48847;SDS011;36611;51.638;5.784;2023-06-10T08:14:06;2.30;;;2.10;;
48847;SDS011;36611;51.638;5.784;2023-06-10T08:16:33;2.53;;;2.30;;
48847;SDS011;36611;51.638;5.784;2023-06-10T08:18:59;2.72;;;2.53;;
48847;SDS011;36611;51.638;5.784;2023-06-10T08:21:26;3.05;;;2.17;;
48847;SDS011;36611;51.638;5.784;2023-06-10T08:23:55;2.60;;;2.40;;
48847;SDS011;36611;51.638;5.784;2023-06-10T08:26:23;2.95;;;2.40;;
48847;SDS011;36611;51.638;5.784;2023-06-10T08:28:50;2.60;;;2.40;;
48847;SDS011;36611;51.638;5.784;2023-06-10T08:31:16;2.83;;;2.53;;
48847;SDS011;36611;51.638;5.784;2023-06-10T08:33:43;2.78;;;2.20;;
48847;SDS011;36611;51.638;5.784;2023-06-10T08:36:09;2.40;;;2.20;;
48847;SDS011;36611;51.638;5.784;2023-06-10T08:38:36;2.20;;;2.00;;
48847;SDS011;36611;51.638;5.784;2023-06-10T08:41:02;3.72;;;2.90;;
48847;SDS011;36611;51.638;5.784;2023-06-10T08:43:42;2.38;;;2.17;;
48847;SDS011;36611;51.638;5.784;2023-06-10T08:46:12;2.50;;;2.30;;
48847;SDS011;36611;51.638;5.784;2023-06-10T08:48:42;2.53;;;2.10;;
48847;SDS011;36611;51.638;5.784;2023-06-10T08:51:10;2.80;;;2.25;;
48847;SDS011;36611;51.638;5.784;2023-06-10T08:53:38;2.53;;;2.33;;
48847;SDS011;36611;51.638;5.784;2023-06-10T08:56:14;2.50;;;2.30;;
48847;SDS011;36611;51.638;5.784;2023-06-10T08:58:43;3.00;;;2.63;;
48847;SDS011;36611;51.638;5.784;2023-06-10T09:01:10;2.78;;;2.58;;
48847;SDS011;36611;51.638;5.784;2023-06-10T09:03:37;3.08;;;2.28;;
48847;SDS011;36611;51.638;5.784;2023-06-10T09:06:04;2.50;;;2.28;;
48847;SDS011;36611;51.638;5.784;2023-06-10T09:08:33;3.20;;;2.63;;
48847;SDS011;36611;51.638;5.784;2023-06-10T09:11:01;2.65;;;2.33;;
48847;SDS011;36611;51.638;5.784;2023-06-10T09:13:27;2.60;;;2.40;;
48847;SDS011;36611;51.638;5.784;2023-06-10T09:15:55;3.08;;;2.65;;
48847;SDS011;36611;51.638;5.784;2023-06-10T09:18:27;2.58;;;2.22;;
48847;SDS011;36611;51.638;5.784;2023-06-10T09:20:56;3.05;;;2.20;;
48847;SDS011;36611;51.638;5.784;2023-06-10T09:23:23;2.72;;;2.15;;
48847;SDS011;36611;51.638;5.784;2023-06-10T09:25:57;2.38;;;2.17;;
48847;SDS011;36611;51.638;5.784;2023-06-10T09:28:25;2.80;;;2.53;;
48847;SDS011;36611;51.638;5.784;2023-06-10T09:31:01;2.60;;;2.40;;
48847;SDS011;36611;51.638;5.784;2023-06-10T09:33:28;3.17;;;2.63;;
48847;SDS011;36611;51.638;5.784;2023-06-10T09:35:55;3.08;;;2.42;;
48847;SDS011;36611;51.638;5.784;2023-06-10T09:38:23;2.28;;;2.08;;
48847;SDS011;36611;51.638;5.784;2023-06-10T09:40:55;2.90;;;2.30;;
48847;SDS011;36611;51.638;5.784;2023-06-10T09:43:22;2.40;;;2.20;;
48847;SDS011;36611;51.638;5.784;2023-06-10T09:45:51;2.72;;;2.30;;
48847;SDS011;36611;51.638;5.784;2023-06-10T09:48:21;2.78;;;2.58;;
48847;SDS011;36611;51.638;5.784;2023-06-10T09:50:48;2.50;;;2.30;;
48847;SDS011;36611;51.638;5.784;2023-06-10T09:53:16;4.18;;;2.25;;
48847;SDS011;36611;51.638;5.784;2023-06-10T09:55:43;2.30;;;2.10;;
48847;SDS011;36611;51.638;5.784;2023-06-10T09:58:10;2.50;;;2.30;;
48847;SDS011;36611;51.638;5.784;2023-06-10T10:00:37;3.13;;;2.47;;
48847;SDS011;36611;51.638;5.784;2023-06-10T10:03:03;2.22;;;1.92;;
48847;SDS011;36611;51.638;5.784;2023-06-10T10:05:30;2.72;;;2.50;;
48847;SDS011;36611;51.638;5.784;2023-06-10T10:07:57;3.05;;;2.30;;
48847;SDS011;36611;51.638;5.784;2023-06-10T10:10:23;2.20;;;2.03;;
48847;SDS011;36611;51.638;5.784;2023-06-10T10:12:51;2.80;;;2.15;;
48847;SDS011;36611;51.638;5.784;2023-06-10T10:15:22;2.47;;;2.25;;
48847;SDS011;36611;51.638;5.784;2023-06-10T10:20:20;3.65;;;2.22;;
48847;SDS011;36611;51.638;5.784;2023-06-10T10:22:51;3.13;;;2.42;;
48847;SDS011;36611;51.638;5.784;2023-06-10T10:25:40;2.50;;;2.30;;
48847;SDS011;36611;51.638;5.784;2023-06-10T10:28:09;2.50;;;2.30;;
48847;SDS011;36611;51.638;5.784;2023-06-10T10:30:49;3.10;;;2.30;;
48847;SDS011;36611;51.638;5.784;2023-06-10T10:33:18;2.45;;;2.25;;
48847;SDS011;36611;51.638;5.784;2023-06-10T10:35:46;2.60;;;2.28;;
48847;SDS011;36611;51.638;5.784;2023-06-10T10:38:13;2.50;;;2.30;;
48847;SDS011;36611;51.638;5.784;2023-06-10T10:40:40;3.63;;;2.17;;
48847;SDS011;36611;51.638;5.784;2023-06-10T10:43:08;2.72;;;2.50;;
48847;SDS011;36611;51.638;5.784;2023-06-10T10:45:35;3.17;;;2.45;;
48847;SDS011;36611;51.638;5.784;2023-06-10T10:48:07;2.63;;;2.42;;
48847;SDS011;36611;51.638;5.784;2023-06-10T10:50:38;2.83;;;2.55;;
48847;SDS011;36611;51.638;5.784;2023-06-10T10:53:05;2.65;;;2.42;;
48847;SDS011;36611;51.638;5.784;2023-06-10T10:55:32;2.38;;;2.17;;
48847;SDS011;36611;51.638;5.784;2023-06-10T10:57:59;2.67;;;2.22;;
48847;SDS011;36611;51.638;5.784;2023-06-10T11:00:33;2.72;;;2.50;;
48847;SDS011;36611;51.638;5.784;2023-06-10T11:03:07;2.88;;;1.85;;
48847;SDS011;36611;51.638;5.784;2023-06-10T11:05:56;3.97;;;2.40;;
48847;SDS011;36611;51.638;5.784;2023-06-10T11:10:59;2.50;;;2.30;;
48847;SDS011;36611;51.638;5.784;2023-06-10T11:13:26;2.42;;;2.22;;
48847;SDS011;36611;51.638;5.784;2023-06-10T11:15:56;2.60;;;2.40;;
48847;SDS011;36611;51.638;5.784;2023-06-10T11:20:52;2.88;;;2.30;;
48847;SDS011;36611;51.638;5.784;2023-06-10T11:31:19;3.55;;;2.30;;
48847;SDS011;36611;51.638;5.784;2023-06-10T11:33:48;2.63;;;2.42;;
48847;SDS011;36611;51.638;5.784;2023-06-10T11:36:18;2.58;;;2.33;;
48847;SDS011;36611;51.638;5.784;2023-06-10T11:38:45;2.75;;;2.47;;
48847;SDS011;36611;51.638;5.784;2023-06-10T11:41:12;2.55;;;2.35;;
48847;SDS011;36611;51.638;5.784;2023-06-10T11:43:43;2.35;;;2.15;;
48847;SDS011;36611;51.638;5.784;2023-06-10T11:46:11;2.50;;;2.30;;
48847;SDS011;36611;51.638;5.784;2023-06-10T11:48:38;2.45;;;2.25;;
48847;SDS011;36611;51.638;5.784;2023-06-10T11:51:06;3.42;;;2.28;;
48847;SDS011;36611;51.638;5.784;2023-06-10T11:53:34;2.60;;;2.40;;
48847;SDS011;36611;51.638;5.784;2023-06-10T11:56:01;3.25;;;2.22;;
48847;SDS011;36611;51.638;5.784;2023-06-10T11:58:27;3.13;;;2.20;;
48847;SDS011;36611;51.638;5.784;2023-06-10T12:00:54;2.45;;;2.25;;
48847;SDS011;36611;51.638;5.784;2023-06-10T12:03:24;2.38;;;2.17;;
48847;SDS011;36611;51.638;5.784;2023-06-10T12:06:02;3.38;;;2.10;;
48847;SDS011;36611;51.638;5.784;2023-06-10T12:08:30;3.08;;;2.60;;
48847;SDS011;36611;51.638;5.784;2023-06-10T12:11:01;2.33;;;2.13;;
48847;SDS011;36611;51.638;5.784;2023-06-10T12:13:28;2.33;;;2.13;;
48847;SDS011;36611;51.638;5.784;2023-06-10T12:15:55;2.50;;;2.30;;
48847;SDS011;36611;51.638;5.784;2023-06-10T12:18:35;3.00;;;2.40;;
48847;SDS011;36611;51.638;5.784;2023-06-10T12:21:02;2.83;;;2.00;;
48847;SDS011;36611;51.638;5.784;2023-06-10T12:23:29;2.72;;;2.53;;
48847;SDS011;36611;51.638;5.784;2023-06-10T12:25:56;2.47;;;2.22;;
48847;SDS011;36611;51.638;5.784;2023-06-10T12:28:23;2.80;;;2.22;;
48847;SDS011;36611;51.638;5.784;2023-06-10T12:30:52;2.30;;;2.10;;
48847;SDS011;36611;51.638;5.784;2023-06-10T12:33:33;3.08;;;2.50;;
48847;SDS011;36611;51.638;5.784;2023-06-10T12:36:00;2.95;;;2.65;;
48847;SDS011;36611;51.638;5.784;2023-06-10T12:38:27;2.50;;;2.22;;
48847;SDS011;36611;51.638;5.784;2023-06-10T12:40:53;2.45;;;2.20;;
48847;SDS011;36611;51.638;5.784;2023-06-10T12:43:20;2.70;;;2.50;;
48847;SDS011;36611;51.638;5.784;2023-06-10T12:45:49;2.40;;;2.20;;
48847;SDS011;36611;51.638;5.784;2023-06-10T12:48:21;2.63;;;2.28;;
48847;SDS011;36611;51.638;5.784;2023-06-10T12:50:52;2.53;;;2.30;;
48847;SDS011;36611;51.638;5.784;2023-06-10T12:53:21;2.53;;;2.33;;
48847;SDS011;36611;51.638;5.784;2023-06-10T12:55:49;2.70;;;2.40;;
48847;SDS011;36611;51.638;5.784;2023-06-10T12:58:16;2.42;;;2.22;;
48847;SDS011;36611;51.638;5.784;2023-06-10T13:00:43;2.35;;;2.15;;
48847;SDS011;36611;51.638;5.784;2023-06-10T13:03:10;2.83;;;2.25;;
48847;SDS011;36611;51.638;5.784;2023-06-10T13:05:37;2.70;;;2.40;;
48847;SDS011;36611;51.638;5.784;2023-06-10T13:08:05;2.80;;;2.20;;
48847;SDS011;36611;51.638;5.784;2023-06-10T13:10:33;2.75;;;2.53;;
48847;SDS011;36611;51.638;5.784;2023-06-10T13:13:01;3.00;;;2.70;;
48847;SDS011;36611;51.638;5.784;2023-06-10T13:15:31;2.38;;;2.17;;
48847;SDS011;36611;51.638;5.784;2023-06-10T13:18:07;3.42;;;2.20;;
48847;SDS011;36611;51.638;5.784;2023-06-10T13:20:33;2.45;;;2.25;;
48847;SDS011;36611;51.638;5.784;2023-06-10T13:23:00;2.38;;;2.10;;
48847;SDS011;36611;51.638;5.784;2023-06-10T13:25:26;2.28;;;2.00;;
48847;SDS011;36611;51.638;5.784;2023-06-10T13:27:53;2.25;;;2.05;;
48847;SDS011;36611;51.638;5.784;2023-06-10T13:30:20;2.80;;;2.33;;
48847;SDS011;36611;51.638;5.784;2023-06-10T13:32:47;2.53;;;2.13;;
48847;SDS011;36611;51.638;5.784;2023-06-10T13:35:13;2.97;;;2.38;;
48847;SDS011;36611;51.638;5.784;2023-06-10T13:37:40;2.58;;;2.05;;
48847;SDS011;36611;51.638;5.784;2023-06-10T13:40:07;2.22;;;2.03;;
48847;SDS011;36611;51.638;5.784;2023-06-10T13:42:35;2.53;;;2.17;;
48847;SDS011;36611;51.638;5.784;2023-06-10T13:45:03;2.47;;;2.10;;
48847;SDS011;36611;51.638;5.784;2023-06-10T13:47:32;3.15;;;2.45;;
48847;SDS011;36611;51.638;5.784;2023-06-10T13:49:59;2.33;;;2.13;;
48847;SDS011;36611;51.638;5.784;2023-06-10T13:52:25;2.25;;;2.05;;
48847;SDS011;36611;51.638;5.784;2023-06-10T13:54:52;2.58;;;2.30;;
48847;SDS011;36611;51.638;5.784;2023-06-10T13:57:18;2.53;;;2.33;;
48847;SDS011;36611;51.638;5.784;2023-06-10T13:59:45;2.45;;;2.22;;
48847;SDS011;36611;51.638;5.784;2023-06-10T14:02:11;1.98;;;1.85;;
48847;SDS011;36611;51.638;5.784;2023-06-10T14:04:38;3.05;;;2.13;;
48847;SDS011;36611;51.638;5.784;2023-06-10T14:07:05;3.25;;;2.30;;
48847;SDS011;36611;51.638;5.784;2023-06-10T14:09:31;2.10;;;1.90;;
48847;SDS011;36611;51.638;5.784;2023-06-10T14:11:58;2.30;;;2.03;;
48847;SDS011;36611;51.638;5.784;2023-06-10T14:14:24;3.72;;;2.10;;
48847;SDS011;36611;51.638;5.784;2023-06-10T14:16:51;2.28;;;2.08;;
48847;SDS011;36611;51.638;5.784;2023-06-10T14:19:18;2.50;;;2.30;;
48847;SDS011;36611;51.638;5.784;2023-06-10T14:21:44;2.60;;;2.25;;
48847;SDS011;36611;51.638;5.784;2023-06-10T14:24:11;2.47;;;2.20;;
48847;SDS011;36611;51.638;5.784;2023-06-10T14:26:38;2.20;;;2.00;;
48847;SDS011;36611;51.638;5.784;2023-06-10T14:29:04;2.58;;;2.38;;
48847;SDS011;36611;51.638;5.784;2023-06-10T14:31:31;2.85;;;2.15;;
48847;SDS011;36611;51.638;5.784;2023-06-10T14:33:58;2.35;;;2.15;;
48847;SDS011;36611;51.638;5.784;2023-06-10T14:36:25;2.85;;;2.22;;
48847;SDS011;36611;51.638;5.784;2023-06-10T14:38:51;2.22;;;2.03;;
48847;SDS011;36611;51.638;5.784;2023-06-10T14:41:18;2.63;;;2.42;;
48847;SDS011;36611;51.638;5.784;2023-06-10T14:43:44;2.20;;;1.90;;
48847;SDS011;36611;51.638;5.784;2023-06-10T14:46:11;2.53;;;2.33;;
48847;SDS011;36611;51.638;5.784;2023-06-10T14:48:38;2.22;;;1.90;;
48847;SDS011;36611;51.638;5.784;2023-06-10T14:51:04;2.88;;;2.30;;
48847;SDS011;36611;51.638;5.784;2023-06-10T14:53:31;2.50;;;2.28;;
48847;SDS011;36611;51.638;5.784;2023-06-10T14:55:58;2.40;;;1.90;;
48847;SDS011;36611;51.638;5.784;2023-06-10T14:58:24;3.00;;;2.20;;
48847;SDS011;36611;51.638;5.784;2023-06-10T15:00:51;2.38;;;2.17;;
48847;SDS011;36611;51.638;5.784;2023-06-10T15:03:17;2.10;;;1.90;;
48847;SDS011;36611;51.638;5.784;2023-06-10T15:05:44;3.17;;;2.08;;
48847;SDS011;36611;51.638;5.784;2023-06-10T15:08:10;3.00;;;2.40;;
48847;SDS011;36611;51.638;5.784;2023-06-10T15:10:37;3.00;;;2.22;;
48847;SDS011;36611;51.638;5.784;2023-06-10T15:13:04;3.63;;;2.22;;
48847;SDS011;36611;51.638;5.784;2023-06-10T15:15:30;3.35;;;2.40;;